Portland Troutdale Airport
KTTD : rendu visible

Aérodrome :











RETROUVEZ-NOUS SUR...

 
LOGIN :

S'inscrire | Disclaimer

   EN    FR    IT 

 









Légende :    VFR   VFR Marginal   IFR   IFR Intensif   IFR Très Intensif
Visi : 
Plafond : 
>= 8 km
>= 3000ft
5 à 8 km
1000 à 3000 ft
1500m à 5 km
500 à 1000 ft
800 à 1500m
200 à 500 ft
< 800m
< 200 ft
Symboles :   Orages  Brouillard  Fortes neiges  Fortes précipitations  Vent > 20 kt






- Altitude de l'aérodrome : 39 ft


KTTD - Portland Troutdale

DERNIER METAR :
  • 042153Z VRB03KT 10SM CLR 21/07 A3001 RMK AO2 SLP161 T02110072

METARs EXPIRÉS :
  • 042053Z VRB04KT 10SM CLR 21/07 A3004 RMK AO2 SLP171 T02110072 58027
  • 041953Z 00000KT 10SM CLR 20/06 A3007 RMK AO2 SLP181 T02000061

TAF KTTD
Valide du 04 à 18h jusqu'au 05 à 18h UTC


041730Z 0418/0518 00000KT P6SM BKN080
FM041900 29005KT P6SM SCT080
FM042300 29008KT P6SM SCT045 BKN200
FM050400 VRB03KT P6SM SCT250
FM051500 00000KT P6SM FEW020 BKN150
FIR KZSE / Amérique du Nord



MET'MAP, la Météo Aéronautique d'un coup d'oeil ! - Copyright ORBIFLY Décembre 2007 - Disclaimer

ORBIFLY MET'MAP TEAM :

Programmation & Développement : Alexandra Zaïnal
Sur une idée originale de : Baudouin d'Aumeries
Assistance à la programmation : Marc-Olivier Méhu
Soutien technique & logistique : Manuel Goepfert

Contact : metmap@orbifly.com




SOURCES & CREDITS :

   NOAA       Earth
Advisory